Time;durP1;ratioP1;P1;durP2;ratioP2;P2;SDS_P1;SDS_P2;PMS_P1;PMS_P2;Temp;Humidity;BMP_temperature;BMP_pressure;BME280_temperature;BME280_humidity;BME280_pressure;Samples;Min_cycle;Max_cycle;Signal;HPM_P1;HPM_P2
2024/03/14 00:01:21;;;;;;;1.50;1.50;;;11.50;99.90;;;;;;10545822;28;20196;-79
2024/03/14 00:06:24;;;;;;;1.30;1.30;;;11.50;99.90;;;;;;10546895;28;20230;-79
2024/03/14 00:11:29;;;;;;;1.50;1.50;;;11.40;99.90;;;;;;10549099;28;20230;-79
2024/03/14 00:16:32;;;;;;;1.50;1.50;;;11.40;99.90;;;;;;10551375;28;20223;-79
2024/03/14 00:21:38;;;;;;;1.30;1.30;;;11.40;99.90;;;;;;10537834;28;20248;-79
2024/03/14 00:26:40;;;;;;;1.13;1.13;;;11.40;99.90;;;;;;10543974;28;20699;-79
2024/03/14 00:31:43;;;;;;;1.20;1.20;;;11.30;99.90;;;;;;10545815;28;20215;-79
2024/03/14 00:36:46;;;;;;;1.40;1.40;;;11.30;99.90;;;;;;10564153;28;20241;-79
2024/03/14 00:41:50;;;;;;;1.50;1.50;;;11.20;99.90;;;;;;10549334;28;20213;-79
2024/03/14 00:46:52;;;;;;;1.20;1.20;;;11.10;99.90;;;;;;10567716;28;20573;-79
2024/03/14 00:51:56;;;;;;;1.50;1.50;;;11.10;99.90;;;;;;10554667;28;20773;-79
2024/03/14 00:56:58;;;;;;;1.30;1.30;;;11.00;99.90;;;;;;10565825;28;20227;-79
2024/03/14 01:02:02;;;;;;;1.30;1.30;;;10.90;99.90;;;;;;10550387;28;20191;-78
2024/03/14 01:07:04;;;;;;;1.20;1.20;;;10.90;99.90;;;;;;10561709;28;20264;-79
2024/03/14 01:12:08;;;;;;;1.20;1.20;;;10.90;99.90;;;;;;10566584;28;20226;-78
2024/03/14 01:17:11;;;;;;;1.37;1.37;;;10.90;99.90;;;;;;10585614;28;20227;-78
2024/03/14 01:22:14;;;;;;;1.30;1.30;;;10.90;99.90;;;;;;10573891;28;20231;-78
2024/03/14 01:27:18;;;;;;;1.20;1.20;;;10.90;99.90;;;;;;10545989;28;20284;-78
2024/03/14 01:32:20;;;;;;;1.10;1.10;;;10.90;99.90;;;;;;10562571;28;20227;-78
2024/03/14 01:37:23;;;;;;;1.40;1.40;;;11.00;99.90;;;;;;10547260;28;20215;-78
2024/03/14 01:42:27;;;;;;;1.20;1.20;;;11.00;99.90;;;;;;10568432;28;20303;-78
2024/03/14 01:47:29;;;;;;;1.50;1.50;;;11.00;99.90;;;;;;10567956;28;20231;-78
2024/03/14 01:52:34;;;;;;;1.37;1.37;;;10.90;99.90;;;;;;10551731;28;20515;-79
2024/03/14 01:57:36;;;;;;;1.10;1.10;;;10.90;99.90;;;;;;10552298;28;20239;-78
2024/03/14 02:02:40;;;;;;;1.40;1.40;;;10.90;99.90;;;;;;10553374;28;20199;-77
2024/03/14 02:07:42;;;;;;;1.30;1.30;;;10.80;99.90;;;;;;10531448;28;20239;-79
2024/03/14 02:12:45;;;;;;;1.23;1.23;;;10.80;99.90;;;;;;10560460;28;20226;-79
2024/03/14 02:17:48;;;;;;;1.10;1.10;;;10.80;99.90;;;;;;10528451;28;20223;-79
2024/03/14 02:22:51;;;;;;;1.30;1.30;;;10.80;99.90;;;;;;10565984;28;20245;-79
2024/03/14 02:27:54;;;;;;;1.20;1.20;;;10.70;99.90;;;;;;10567971;28;20590;-78
2024/03/14 02:32:56;;;;;;;1.10;1.10;;;10.70;99.90;;;;;;10537714;28;20643;-79
2024/03/14 02:37:59;;;;;;;1.30;1.30;;;10.60;99.90;;;;;;10542949;28;20227;-79
2024/03/14 02:43:02;;;;;;;1.20;1.20;;;10.60;99.90;;;;;;10553073;28;20677;-79
2024/03/14 02:48:05;;;;;;;1.20;1.20;;;10.60;99.90;;;;;;10565461;28;20215;-79
2024/03/14 02:53:07;;;;;;;1.20;1.20;;;10.50;99.90;;;;;;10558177;28;20237;-79
2024/03/14 02:58:11;;;;;;;1.40;1.40;;;10.50;99.90;;;;;;10547965;28;20724;-79
2024/03/14 03:03:15;;;;;;;1.10;1.10;;;10.50;99.90;;;;;;10558586;28;20680;-79
2024/03/14 03:08:17;;;;;;;1.40;1.40;;;10.40;99.90;;;;;;10562306;28;20219;-79
2024/03/14 03:13:20;;;;;;;1.30;1.30;;;10.40;99.90;;;;;;10543872;28;20215;-79
2024/03/14 03:18:23;;;;;;;1.50;1.50;;;10.30;99.90;;;;;;10535346;28;20218;-78
2024/03/14 03:23:25;;;;;;;1.70;1.70;;;10.20;99.90;;;;;;10561678;28;20603;-78
2024/03/14 03:28:30;;;;;;;1.10;1.10;;;10.10;99.90;;;;;;10516109;28;20636;-78
2024/03/14 03:33:32;;;;;;;1.50;1.50;;;10.00;99.90;;;;;;10562073;28;20599;-78
2024/03/14 03:38:36;;;;;;;1.30;1.30;;;10.00;99.90;;;;;;10546066;28;20624;-79
2024/03/14 03:43:39;;;;;;;1.40;1.40;;;10.00;99.90;;;;;;10556240;28;20219;-79
2024/03/14 03:48:41;;;;;;;1.57;1.57;;;9.90;99.90;;;;;;10537066;28;20228;-78
2024/03/14 03:53:44;;;;;;;1.20;1.20;;;9.90;99.90;;;;;;10544895;28;20292;-79
2024/03/14 03:58:47;;;;;;;1.30;1.30;;;9.90;99.90;;;;;;10520260;28;20238;-78
2024/03/14 04:03:51;;;;;;;1.40;1.40;;;9.90;99.90;;;;;;10522436;28;20211;-79
2024/03/14 04:08:55;;;;;;;1.80;1.80;;;9.90;99.90;;;;;;10545348;28;20275;-79
2024/03/14 04:13:58;;;;;;;1.77;1.77;;;9.90;99.90;;;;;;10550372;28;20223;-78
2024/03/14 04:19:00;;;;;;;1.50;1.50;;;9.80;99.90;;;;;;10546286;28;20226;-79
2024/03/14 04:24:03;;;;;;;1.60;1.60;;;9.80;99.90;;;;;;10532605;28;20722;-79
2024/03/14 04:29:07;;;;;;;1.90;1.90;;;9.80;99.90;;;;;;10556753;28;20211;-79
2024/03/14 04:34:09;;;;;;;1.60;1.60;;;9.80;99.90;;;;;;10563318;28;20234;-79
2024/03/14 04:39:14;;;;;;;1.80;1.80;;;9.80;99.90;;;;;;10562178;28;20219;-79
2024/03/14 04:44:18;;;;;;;1.73;1.73;;;9.80;99.90;;;;;;10548823;28;20552;-79
2024/03/14 04:49:21;;;;;;;1.50;1.50;;;9.80;99.90;;;;;;10541338;28;20293;-79
2024/03/14 04:54:24;;;;;;;1.60;1.60;;;9.70;99.90;;;;;;10546528;28;20696;-79
2024/03/14 04:59:27;;;;;;;1.80;1.80;;;9.70;99.90;;;;;;10528774;28;20236;-79
2024/03/14 05:04:30;;;;;;;1.40;1.40;;;9.70;99.90;;;;;;10541400;28;20537;-79
2024/03/14 05:09:33;;;;;;;1.60;1.60;;;9.70;99.90;;;;;;10561930;28;20223;-79
2024/03/14 05:14:37;;;;;;;1.53;1.53;;;9.60;99.90;;;;;;10562863;28;20226;-78
2024/03/14 05:19:40;;;;;;;1.80;1.80;;;9.60;99.90;;;;;;10545693;28;20215;-79
2024/03/14 05:24:42;;;;;;;1.67;1.67;;;9.70;99.90;;;;;;10546685;28;20864;-79
2024/03/14 05:29:46;;;;;;;2.00;2.00;;;9.60;99.90;;;;;;10533320;28;20219;-79
2024/03/14 05:34:49;;;;;;;1.70;1.70;;;9.70;99.90;;;;;;10538452;28;20222;-79
2024/03/14 05:39:51;;;;;;;1.87;1.87;;;9.70;99.90;;;;;;10574255;28;20215;-79
2024/03/14 05:44:55;;;;;;;1.70;1.70;;;9.70;99.90;;;;;;10532075;28;20670;-79
2024/03/14 05:49:57;;;;;;;1.57;1.57;;;9.70;99.90;;;;;;10526274;28;20230;-78
2024/03/14 05:55:01;;;;;;;1.50;1.50;;;9.80;99.90;;;;;;10550054;28;20222;-79
2024/03/14 06:00:04;;;;;;;1.47;1.47;;;9.80;99.90;;;;;;10533572;28;20261;-79
2024/03/14 06:05:15;;;;;;;1.30;1.30;;;9.80;99.90;;;;;;10559365;28;20199;-79
2024/03/14 06:10:18;;;;;;;1.40;1.40;;;9.80;99.90;;;;;;10572895;28;20253;-79
2024/03/14 06:15:21;;;;;;;1.13;1.13;;;9.90;99.90;;;;;;10592855;28;20238;-78
2024/03/14 06:20:24;;;;;;;1.10;1.10;;;9.90;99.90;;;;;;10588111;28;20192;-79
2024/03/14 06:25:27;;;;;;;1.13;1.13;;;10.00;99.90;;;;;;10555466;28;20191;-78
2024/03/14 06:30:29;;;;;;;1.30;1.30;;;10.00;99.90;;;;;;10576869;28;20301;-79
2024/03/14 06:35:34;;;;;;;1.30;1.30;;;10.00;99.90;;;;;;10562358;28;20259;-79
2024/03/14 06:40:37;;;;;;;1.53;1.53;;;10.10;99.90;;;;;;10560039;28;20194;-79
2024/03/14 06:45:40;;;;;;;1.00;1.00;;;10.20;99.90;;;;;;10554925;28;20576;-79
2024/03/14 06:50:43;;;;;;;1.00;1.00;;;10.30;99.90;;;;;;10563766;28;20223;-79
2024/03/14 06:55:46;;;;;;;0.87;0.87;;;10.30;99.90;;;;;;10552250;28;20219;-81
2024/03/14 07:00:49;;;;;;;1.20;1.20;;;10.40;99.90;;;;;;10572295;28;20218;-81
2024/03/14 07:05:55;;;;;;;0.63;0.63;;;10.40;99.90;;;;;;10553019;28;20226;-82
2024/03/14 07:10:57;;;;;;;0.40;0.40;;;10.50;99.90;;;;;;10539677;28;20577;-82
2024/03/14 07:16:00;;;;;;;0.93;0.93;;;10.60;99.90;;;;;;10572133;28;20276;-82
2024/03/14 07:21:02;;;;;;;0.90;0.90;;;10.70;99.90;;;;;;10518429;28;20206;-82
2024/03/14 07:26:05;;;;;;;1.00;1.00;;;10.80;99.90;;;;;;10562108;28;20215;-82
2024/03/14 07:31:08;;;;;;;1.30;1.30;;;10.90;99.90;;;;;;10549550;28;20224;-82
2024/03/14 07:36:15;;;;;;;0.60;0.60;;;11.00;99.90;;;;;;10548052;28;20214;-81
2024/03/14 07:41:21;;;;;;;1.00;1.00;;;11.00;99.90;;;;;;10547266;28;20215;-82
2024/03/14 07:46:23;;;;;;;0.77;0.77;;;11.20;99.90;;;;;;10559995;28;20231;-82
2024/03/14 07:51:26;;;;;;;1.20;1.20;;;11.30;99.90;;;;;;10536931;28;20195;-82
2024/03/14 07:56:29;;;;;;;0.90;0.90;;;11.30;99.90;;;;;;10557778;27;20227;-82
2024/03/14 08:01:33;;;;;;;0.90;0.90;;;11.30;99.90;;;;;;10547110;28;20195;-82
2024/03/14 08:06:39;;;;;;;0.80;0.80;;;11.40;99.90;;;;;;10559140;28;20220;-82
2024/03/14 08:11:42;;;;;;;0.90;0.90;;;11.40;99.90;;;;;;10560633;28;20217;-82
2024/03/14 08:16:44;;;;;;;0.80;0.80;;;11.50;99.90;;;;;;10547776;28;20227;-82
2024/03/14 08:21:47;;;;;;;0.87;0.87;;;11.70;99.90;;;;;;10551809;28;20809;-82
2024/03/14 08:26:50;;;;;;;0.90;0.90;;;11.80;99.90;;;;;;10557264;28;20223;-82
2024/03/14 08:31:59;;;;;;;0.50;0.50;;;11.90;99.90;;;;;;10526491;28;20276;-82
2024/03/14 08:37:01;;;;;;;0.40;0.40;;;11.90;99.90;;;;;;10560725;28;20223;-82
2024/03/14 08:42:08;;;;;;;0.50;0.50;;;12.00;99.90;;;;;;10544625;28;20213;-80
2024/03/14 08:47:10;;;;;;;0.60;0.60;;;12.00;99.90;;;;;;10556278;28;20621;-82
2024/03/14 08:52:14;;;;;;;0.50;0.50;;;12.10;99.90;;;;;;10545613;28;20211;-81
2024/03/14 08:57:18;;;;;;;0.40;0.40;;;12.10;99.90;;;;;;10537823;28;20227;-82
2024/03/14 09:02:22;;;;;;;0.70;0.70;;;12.30;99.90;;;;;;10558401;28;20750;-82
2024/03/14 09:07:24;;;;;;;0.60;0.60;;;12.40;99.90;;;;;;10565911;28;20211;-82
2024/03/14 09:12:27;;;;;;;0.60;0.60;;;12.50;99.90;;;;;;10550854;28;20195;-82
2024/03/14 09:17:30;;;;;;;0.60;0.60;;;12.60;99.90;;;;;;10567584;28;20219;-82
2024/03/14 09:22:32;;;;;;;0.50;0.50;;;12.70;99.90;;;;;;10549383;28;20265;-82
2024/03/14 09:27:35;;;;;;;0.70;0.70;;;12.90;99.90;;;;;;10566211;28;20547;-82
2024/03/14 09:32:40;;;;;;;0.50;0.50;;;13.10;99.90;;;;;;10558675;28;20671;-82
2024/03/14 09:37:43;;;;;;;0.50;0.50;;;13.20;99.90;;;;;;10591018;28;20242;-82
2024/03/14 09:42:47;;;;;;;0.60;0.60;;;13.40;99.90;;;;;;10557596;28;20877;-82
2024/03/14 09:47:49;;;;;;;0.50;0.50;;;13.60;99.90;;;;;;10558121;28;20252;-83
2024/03/14 09:52:53;;;;;;;0.50;0.50;;;13.70;99.90;;;;;;10555064;28;20206;-83
2024/03/14 09:57:55;;;;;;;0.40;0.40;;;13.80;99.90;;;;;;10537410;28;20229;-81
2024/03/14 10:02:58;;;;;;;0.50;0.50;;;13.90;99.90;;;;;;10555950;28;20199;-81
2024/03/14 10:08:02;;;;;;;0.50;0.50;;;13.90;99.90;;;;;;10555330;28;20242;-83
2024/03/14 10:13:05;;;;;;;0.43;0.43;;;13.90;99.90;;;;;;10519522;28;20203;-81
2024/03/14 10:18:10;;;;;;;0.50;0.50;;;14.10;99.90;;;;;;10551395;28;20750;-82
2024/03/14 10:23:15;;;;;;;0.50;0.50;;;14.20;99.90;;;;;;10558374;28;20812;-83
2024/03/14 10:28:20;;;;;;;0.40;0.40;;;14.40;99.90;;;;;;10556434;28;20227;-83
2024/03/14 10:33:22;;;;;;;0.50;0.50;;;14.60;99.90;;;;;;10555550;28;20216;-84
2024/03/14 10:38:29;;;;;;;0.50;0.50;;;14.70;99.90;;;;;;10573382;28;20634;-81
2024/03/14 10:43:32;;;;;;;0.40;0.40;;;14.80;99.90;;;;;;10572446;28;20692;-81
2024/03/14 10:48:34;;;;;;;0.40;0.40;;;14.80;99.90;;;;;;10535827;28;20695;-81
2024/03/14 10:53:37;;;;;;;0.60;0.60;;;14.80;99.90;;;;;;10570457;28;20215;-81
2024/03/14 10:58:40;;;;;;;0.60;0.60;;;14.80;99.90;;;;;;10537012;28;20223;-81
2024/03/14 11:03:43;;;;;;;0.50;0.50;;;14.90;99.90;;;;;;10554358;28;20199;-81
2024/03/14 11:08:46;;;;;;;0.50;0.50;;;15.10;99.90;;;;;;10537163;28;20223;-81
2024/03/14 11:13:50;;;;;;;0.40;0.40;;;15.20;99.90;;;;;;10553541;28;20275;-81
2024/03/14 11:18:55;;;;;;;0.50;0.50;;;15.20;99.90;;;;;;10552695;28;20218;-81
2024/03/14 11:23:59;;;;;;;0.40;0.40;;;15.30;99.90;;;;;;10565959;28;20668;-81
2024/03/14 11:29:03;;;;;;;0.50;0.50;;;15.30;99.90;;;;;;10565234;28;20219;-81
2024/03/14 11:34:08;;;;;;;0.43;0.43;;;15.30;99.90;;;;;;10551916;28;20583;-81
2024/03/14 11:39:16;;;;;;;0.10;0.10;;;15.30;99.90;;;;;;10585552;28;20218;-81
2024/03/14 11:44:20;;;;;;;0.50;0.50;;;15.40;99.90;;;;;;10566620;28;20203;-81
2024/03/14 11:49:23;;;;;;;0.60;0.60;;;15.50;99.90;;;;;;10568982;28;20612;-81
2024/03/14 11:54:25;;;;;;;0.60;0.60;;;15.40;99.90;;;;;;10557449;28;20219;-81
2024/03/14 11:59:28;;;;;;;0.50;0.50;;;15.40;99.90;;;;;;10567888;28;20742;-81
2024/03/14 12:04:30;;;;;;;0.57;0.57;;;15.30;99.90;;;;;;10552965;28;20199;-81
2024/03/14 12:09:33;;;;;;;0.57;0.57;;;15.20;99.90;;;;;;10550248;28;20231;-81
2024/03/14 12:14:36;;;;;;;0.60;0.60;;;15.20;99.90;;;;;;10584956;28;20215;-82
2024/03/14 12:19:42;;;;;;;0.50;0.50;;;15.10;99.90;;;;;;10551259;28;20240;-82
2024/03/14 12:24:54;;;;;;;0.50;0.50;;;15.00;99.90;;;;;;10553752;28;20198;-82
2024/03/14 12:29:58;;;;;;;0.30;0.30;;;15.00;99.90;;;;;;10521489;28;20222;-82
2024/03/14 12:35:02;;;;;;;0.40;0.40;;;14.90;99.90;;;;;;10549127;28;20219;-82
2024/03/14 12:40:07;;;;;;;0.30;0.30;;;14.90;99.90;;;;;;10574066;28;20222;-82
2024/03/14 12:45:10;;;;;;;0.40;0.40;;;14.90;99.90;;;;;;10565184;28;20558;-81
2024/03/14 12:50:22;;;;;;;0.40;0.40;;;14.90;99.90;;;;;;10579607;28;20692;-82
2024/03/14 12:55:25;;;;;;;0.40;0.40;;;14.80;99.90;;;;;;10548112;28;20248;-81
2024/03/14 13:00:28;;;;;;;0.40;0.40;;;14.90;99.90;;;;;;10584514;28;20204;-82
2024/03/14 13:05:30;;;;;;;0.50;0.50;;;14.90;99.90;;;;;;10567922;28;20192;-82
2024/03/14 13:10:36;;;;;;;0.50;0.50;;;14.80;99.90;;;;;;10559110;28;20192;-82
2024/03/14 13:15:40;;;;;;;0.40;0.40;;;14.70;99.90;;;;;;10565396;28;20215;-81
2024/03/14 13:20:43;;;;;;;0.53;0.53;;;14.70;99.90;;;;;;10564713;28;20218;-82
2024/03/14 13:25:46;;;;;;;0.40;0.40;;;14.70;99.90;;;;;;10584660;28;20627;-81
2024/03/14 13:30:49;;;;;;;0.40;0.40;;;14.80;99.90;;;;;;10584253;28;20204;-82
2024/03/14 13:35:51;;;;;;;0.40;0.40;;;14.90;99.90;;;;;;10556752;28;20723;-82
2024/03/14 13:40:57;;;;;;;0.40;0.40;;;15.10;99.80;;;;;;10557585;28;20203;-82
2024/03/14 13:46:01;;;;;;;0.50;0.50;;;15.40;99.90;;;;;;10577247;28;20264;-81
2024/03/14 13:51:07;;;;;;;0.40;0.40;;;15.60;99.90;;;;;;10591627;28;20199;-82
2024/03/14 13:56:13;;;;;;;0.60;0.60;;;15.60;99.90;;;;;;10575807;28;20708;-82
2024/03/14 14:01:21;;;;;;;0.50;0.50;;;15.70;99.90;;;;;;10576206;28;20203;-82
2024/03/14 14:06:24;;;;;;;0.50;0.50;;;15.90;98.70;;;;;;10577009;28;20219;-82
2024/03/14 14:11:27;;;;;;;0.50;0.50;;;16.20;97.90;;;;;;10560759;28;20852;-82
2024/03/14 14:16:30;;;;;;;0.50;0.50;;;16.40;97.80;;;;;;10573550;28;20276;-82
2024/03/14 14:21:35;;;;;;;0.60;0.60;;;16.50;97.70;;;;;;10560622;28;20195;-82
2024/03/14 14:26:38;;;;;;;0.60;0.60;;;16.60;97.90;;;;;;10589470;28;20214;-81
2024/03/14 14:31:41;;;;;;;0.40;0.40;;;16.70;97.50;;;;;;10572683;28;20252;-82
2024/03/14 14:36:44;;;;;;;0.67;0.67;;;16.60;97.50;;;;;;10566174;28;20239;-82
2024/03/14 14:41:47;;;;;;;0.63;0.63;;;16.60;97.50;;;;;;10591325;28;20199;-82
2024/03/14 14:46:50;;;;;;;0.50;0.50;;;16.60;96.70;;;;;;10587827;28;20207;-82
2024/03/14 14:51:53;;;;;;;0.50;0.50;;;16.80;96.70;;;;;;10556568;28;20203;-82
2024/03/14 14:56:55;;;;;;;0.50;0.50;;;16.90;97.40;;;;;;10571442;28;20222;-82
2024/03/14 15:01:58;;;;;;;0.47;0.47;;;16.90;96.60;;;;;;10557871;28;20199;-83
2024/03/14 15:07:01;;;;;;;0.50;0.50;;;16.90;96.30;;;;;;10572381;28;20252;-82
2024/03/14 15:12:04;;;;;;;0.50;0.50;;;16.80;96.40;;;;;;10558309;28;20203;-82
2024/03/14 15:17:08;;;;;;;0.20;0.20;;;16.80;96.90;;;;;;10574780;28;20245;-82
2024/03/14 15:22:11;;;;;;;0.50;0.50;;;16.70;97.20;;;;;;10562332;28;20199;-82
2024/03/14 15:27:13;;;;;;;0.30;0.30;;;16.70;97.10;;;;;;10594136;28;20207;-82
2024/03/14 15:32:17;;;;;;;0.60;0.60;;;16.60;97.70;;;;;;10559580;28;20202;-82
2024/03/14 15:37:19;;;;;;;0.80;0.80;;;16.30;98.60;;;;;;10576048;28;20218;-82
2024/03/14 15:42:22;;;;;;;0.60;0.60;;;16.20;98.60;;;;;;10589003;28;20312;-82
2024/03/14 15:47:24;;;;;;;0.60;0.60;;;16.10;98.20;;;;;;10547161;28;20222;-80
2024/03/14 15:52:27;;;;;;;0.50;0.50;;;16.30;98.00;;;;;;10576109;28;20203;-80
2024/03/14 15:57:29;;;;;;;0.50;0.50;;;16.30;98.10;;;;;;10578709;28;20230;-80
2024/03/14 16:02:32;;;;;;;0.47;0.47;;;16.40;97.90;;;;;;10538815;28;20203;-80
2024/03/14 16:07:36;;;;;;;0.50;0.50;;;16.40;97.80;;;;;;10575840;28;20700;-80
2024/03/14 16:12:39;;;;;;;0.60;0.60;;;16.40;97.80;;;;;;10546291;28;20190;-81
2024/03/14 16:17:43;;;;;;;0.50;0.50;;;16.40;98.10;;;;;;10571599;28;20252;-80
2024/03/14 16:22:46;;;;;;;0.60;0.60;;;16.30;98.60;;;;;;10530774;28;20200;-80
2024/03/14 16:27:49;;;;;;;0.50;0.50;;;16.10;99.40;;;;;;10521486;28;20244;-80
2024/03/14 16:32:52;;;;;;;0.60;0.60;;;15.90;99.90;;;;;;10547727;28;20211;-80
2024/03/14 16:37:55;;;;;;;0.60;0.60;;;15.80;99.90;;;;;;10557207;28;20230;-80
2024/03/14 16:42:58;;;;;;;0.60;0.60;;;15.70;99.90;;;;;;10555625;28;20203;-80
2024/03/14 16:48:01;;;;;;;0.60;0.60;;;15.70;99.90;;;;;;10563606;22;20234;-81
2024/03/14 16:53:05;;;;;;;0.53;0.53;;;15.80;99.90;;;;;;10542099;28;21284;-80
2024/03/14 16:58:10;;;;;;;0.70;0.70;;;15.70;99.90;;;;;;10503487;28;20235;-78
2024/03/14 17:03:13;;;;;;;0.30;0.30;;;15.70;99.90;;;;;;10483358;28;20199;-80
2024/03/14 17:08:15;;;;;;;0.60;0.60;;;15.60;99.90;;;;;;10481215;28;20219;-81
2024/03/14 17:13:18;;;;;;;0.63;0.63;;;15.50;99.90;;;;;;10478194;28;20234;-79
2024/03/14 17:18:21;;;;;;;0.40;0.40;;;15.40;99.90;;;;;;10498784;28;20223;-78
2024/03/14 17:23:23;;;;;;;0.60;0.60;;;15.30;99.90;;;;;;10479433;28;20192;-80
2024/03/14 17:28:27;;;;;;;0.60;0.60;;;15.20;99.90;;;;;;10489257;28;20211;-80
2024/03/14 17:33:30;;;;;;;0.50;0.50;;;15.10;99.90;;;;;;10512314;28;20200;-81
2024/03/14 17:38:33;;;;;;;0.30;0.30;;;15.00;99.90;;;;;;10505300;28;20572;-79
2024/03/14 17:43:35;;;;;;;0.60;0.60;;;14.80;99.90;;;;;;10505432;28;20253;-81
2024/03/14 17:48:38;;;;;;;0.60;0.60;;;14.70;99.90;;;;;;10504837;28;20324;-79
2024/03/14 17:53:41;;;;;;;0.60;0.60;;;14.60;99.90;;;;;;10504797;28;20203;-77
2024/03/14 17:58:43;;;;;;;0.53;0.53;;;14.60;99.90;;;;;;10487521;28;20253;-81
2024/03/14 18:03:46;;;;;;;0.60;0.60;;;14.40;99.90;;;;;;10470098;28;20215;-80
2024/03/14 18:08:49;;;;;;;0.20;0.20;;;14.30;99.90;;;;;;10486411;28;20688;-79
2024/03/14 18:13:52;;;;;;;0.50;0.50;;;14.20;99.90;;;;;;10504272;28;20207;-78
2024/03/14 18:18:55;;;;;;;0.70;0.70;;;14.10;99.90;;;;;;10496760;28;20238;-80
2024/03/14 18:23:58;;;;;;;0.70;0.70;;;14.00;99.90;;;;;;10487141;28;20249;-81
2024/03/14 18:29:01;;;;;;;0.70;0.70;;;13.90;99.90;;;;;;10494948;28;20224;-78
2024/03/14 18:34:03;;;;;;;0.60;0.60;;;13.80;99.90;;;;;;10473144;28;20200;-78
2024/03/14 18:39:13;;;;;;;0.60;0.60;;;13.70;99.90;;;;;;10497637;28;20231;-78
2024/03/14 18:44:17;;;;;;;0.60;0.60;;;13.70;99.90;;;;;;10476329;28;20230;-78
2024/03/14 18:49:22;;;;;;;0.60;0.60;;;13.60;99.90;;;;;;10498887;28;20219;-78
2024/03/14 18:54:25;;;;;;;0.73;0.73;;;13.60;99.90;;;;;;10471192;28;20200;-78
2024/03/14 18:59:27;;;;;;;0.60;0.60;;;13.50;99.90;;;;;;10477119;28;20288;-80
2024/03/14 19:04:30;;;;;;;0.60;0.60;;;13.50;99.90;;;;;;10495826;28;20191;-78
2024/03/14 19:09:34;;;;;;;0.77;0.77;;;13.50;99.90;;;;;;10496517;28;20208;-80
2024/03/14 19:14:37;;;;;;;0.57;0.57;;;13.40;99.90;;;;;;10502406;28;20211;-79
2024/03/14 19:19:39;;;;;;;0.70;0.70;;;13.40;99.90;;;;;;10499279;28;20238;-80
2024/03/14 19:24:43;;;;;;;0.70;0.70;;;13.40;99.90;;;;;;10492014;28;20256;-78
2024/03/14 19:29:47;;;;;;;0.60;0.60;;;13.40;99.90;;;;;;10503165;28;20207;-78
2024/03/14 19:34:50;;;;;;;0.50;0.50;;;13.40;99.90;;;;;;10509168;28;20214;-78
2024/03/14 19:39:52;;;;;;;0.33;0.33;;;13.30;99.90;;;;;;10507535;28;20823;-79
2024/03/14 19:44:55;;;;;;;0.57;0.57;;;13.30;99.90;;;;;;10491940;28;20204;-78
2024/03/14 19:49:57;;;;;;;0.80;0.80;;;13.30;99.90;;;;;;10481506;28;20216;-77
2024/03/14 19:55:00;;;;;;;0.80;0.80;;;13.30;99.90;;;;;;10499178;28;20249;-78
2024/03/14 20:00:09;;;;;;;0.70;0.70;;;13.20;99.90;;;;;;10499707;28;20228;-80
2024/03/14 20:05:14;;;;;;;0.70;0.70;;;13.30;99.90;;;;;;10497539;28;20214;-79
2024/03/14 20:10:24;;;;;;;0.80;0.80;;;13.20;99.90;;;;;;10497310;28;20223;-80
2024/03/14 20:15:27;;;;;;;0.70;0.70;;;13.20;99.90;;;;;;10465738;28;20207;-80
2024/03/14 20:20:30;;;;;;;0.60;0.60;;;13.10;99.90;;;;;;10505728;28;20653;-79
2024/03/14 20:25:32;;;;;;;0.70;0.70;;;13.10;99.90;;;;;;10492699;28;20593;-80
2024/03/14 20:30:36;;;;;;;0.60;0.60;;;13.00;99.90;;;;;;10472993;28;20338;-77
2024/03/14 20:35:39;;;;;;;0.60;0.60;;;13.00;99.90;;;;;;10494462;28;20216;-78
2024/03/14 20:40:42;;;;;;;0.70;0.70;;;12.90;99.90;;;;;;10491341;28;20200;-79
2024/03/14 20:45:44;;;;;;;0.60;0.60;;;12.80;99.90;;;;;;10494567;28;20199;-78
2024/03/14 20:50:47;;;;;;;0.80;0.80;;;12.80;99.90;;;;;;10485699;28;20229;-81
2024/03/14 20:55:50;;;;;;;0.77;0.77;;;12.70;99.90;;;;;;10505013;28;20281;-83
2024/03/14 21:00:53;;;;;;;0.90;0.90;;;12.60;99.90;;;;;;10488640;28;20204;-82
2024/03/14 21:05:56;;;;;;;0.80;0.80;;;12.60;99.90;;;;;;10508699;28;20224;-80
2024/03/14 21:11:00;;;;;;;1.00;1.00;;;12.50;99.90;;;;;;10523208;28;20196;-78
2024/03/14 21:16:02;;;;;;;0.93;0.93;;;12.40;99.90;;;;;;10508555;28;20276;-82
2024/03/14 21:21:06;;;;;;;0.70;0.70;;;12.40;99.90;;;;;;10507957;28;20728;-80
2024/03/14 21:26:09;;;;;;;1.00;1.00;;;12.30;99.90;;;;;;10497815;28;20212;-81
2024/03/14 21:31:13;;;;;;;0.73;0.73;;;12.30;99.90;;;;;;10508962;28;20223;-82
2024/03/14 21:36:16;;;;;;;0.60;0.60;;;12.30;99.90;;;;;;10515926;28;20231;-79
2024/03/14 21:41:20;;;;;;;0.70;0.70;;;12.30;99.90;;;;;;10490765;28;20626;-79
2024/03/14 21:46:22;;;;;;;0.50;0.50;;;12.30;99.90;;;;;;10503198;28;20231;-81
2024/03/14 21:51:24;;;;;;;0.60;0.60;;;12.30;99.90;;;;;;10502844;28;20211;-79
2024/03/14 21:56:27;;;;;;;0.50;0.50;;;12.20;99.90;;;;;;10506315;28;20223;-80
2024/03/14 22:01:30;;;;;;;0.70;0.70;;;12.20;99.90;;;;;;10498902;28;20551;-80
2024/03/14 22:06:32;;;;;;;0.50;0.50;;;12.30;99.90;;;;;;10505465;28;20220;-82
2024/03/14 22:11:35;;;;;;;0.90;0.90;;;12.30;99.90;;;;;;10505897;28;20573;-80
2024/03/14 22:16:37;;;;;;;0.70;0.70;;;12.20;99.90;;;;;;10505915;28;20299;-79
2024/03/14 22:21:40;;;;;;;0.80;0.80;;;12.20;99.90;;;;;;10508022;28;20200;-79
2024/03/14 22:26:42;;;;;;;0.87;0.87;;;12.20;99.90;;;;;;10509147;28;20239;-80
2024/03/14 22:31:45;;;;;;;0.80;0.80;;;12.10;99.90;;;;;;10509076;28;20200;-80
2024/03/14 22:36:47;;;;;;;0.90;0.90;;;12.10;99.90;;;;;;10510730;28;20272;-80
2024/03/14 22:41:50;;;;;;;0.80;0.80;;;12.00;99.90;;;;;;10508186;28;20669;-81
2024/03/14 22:46:54;;;;;;;0.90;0.90;;;12.00;99.90;;;;;;10531058;22;20222;-83
2024/03/14 22:51:57;;;;;;;0.80;0.80;;;11.90;99.90;;;;;;10617063;27;20206;-83
2024/03/14 22:57:00;;;;;;;0.67;0.67;;;11.90;99.90;;;;;;10612193;27;20638;-83
2024/03/14 23:02:03;;;;;;;0.70;0.70;;;11.80;99.90;;;;;;10573378;28;20214;-83
2024/03/14 23:07:05;;;;;;;0.90;0.90;;;11.80;99.90;;;;;;10575588;28;20211;-84
2024/03/14 23:12:09;;;;;;;0.80;0.80;;;11.70;99.90;;;;;;10567221;28;20567;-83
2024/03/14 23:17:14;;;;;;;0.80;0.80;;;11.70;99.90;;;;;;10558051;28;20578;-83
2024/03/14 23:22:17;;;;;;;0.77;0.77;;;11.70;99.90;;;;;;10577204;28;20253;-83
2024/03/14 23:27:19;;;;;;;0.87;0.87;;;11.70;99.90;;;;;;10601199;28;20283;-82
2024/03/14 23:32:22;;;;;;;0.80;0.80;;;11.70;99.90;;;;;;10555370;28;20668;-83
2024/03/14 23:37:24;;;;;;;1.00;1.00;;;11.60;99.90;;;;;;10580727;28;20772;-83
2024/03/14 23:42:34;;;;;;;1.00;1.00;;;11.60;99.90;;;;;;10562151;28;20221;-83
2024/03/14 23:47:36;;;;;;;0.83;0.83;;;11.50;99.90;;;;;;10550943;28;20226;-83
2024/03/14 23:52:39;;;;;;;1.10;1.10;;;11.50;99.90;;;;;;10548463;28;20195;-83
2024/03/14 23:57:42;;;;;;;0.93;0.93;;;11.50;99.90;;;;;;10572276;28;20230;-83
